createdAt,value
2022-11-24T00:02:21.172Z,92.00
2022-11-24T00:12:23.871Z,91.92
2022-11-24T00:22:27.932Z,91.89
2022-11-24T00:32:30.896Z,91.89
2022-11-24T00:42:34.923Z,91.77
2022-11-24T00:52:37.780Z,91.41
2022-11-24T01:02:41.857Z,90.95
2022-11-24T01:12:44.538Z,91.52
2022-11-24T01:22:49.913Z,91.73
2022-11-24T01:32:52.564Z,92.20
2022-11-24T01:42:56.726Z,92.50
2022-11-24T01:52:59.694Z,92.88
2022-11-24T02:03:03.779Z,93.17
2022-11-24T02:13:06.535Z,93.30
2022-11-24T02:23:18.157Z,93.10
2022-11-24T02:33:25.193Z,93.24
2022-11-24T02:43:33.274Z,93.25
2022-11-24T02:53:37.503Z,93.62
2022-11-24T03:03:40.339Z,94.12
2022-11-24T03:13:44.357Z,93.80
2022-11-24T03:23:47.194Z,93.78
2022-11-24T03:33:51.483Z,93.41
2022-11-24T03:43:54.174Z,93.02
2022-11-24T03:53:58.193Z,93.17
2022-11-24T04:04:00.847Z,92.88
2022-11-24T04:14:07.910Z,93.22
2022-11-24T04:24:14.695Z,93.14
2022-11-24T04:34:18.671Z,92.95
2022-11-24T04:44:21.460Z,92.63
2022-11-24T04:54:25.669Z,92.69
2022-11-24T05:04:28.484Z,92.01
2022-11-24T05:14:32.788Z,92.15
2022-11-24T05:24:35.800Z,92.08
2022-11-24T05:34:40.014Z,91.92
2022-11-24T05:44:42.691Z,92.18
2022-11-24T05:54:46.647Z,92.11
2022-11-24T06:04:49.472Z,92.24
2022-11-24T06:14:53.459Z,92.37
2022-11-24T06:24:56.083Z,92.01
2022-11-24T06:35:00.082Z,92.60
2022-11-24T06:45:07.399Z,92.55
2022-11-24T06:55:13.047Z,92.55
2022-11-24T07:05:15.798Z,92.39
2022-11-24T07:15:19.838Z,92.78
2022-11-24T07:25:22.498Z,92.73
2022-11-24T07:35:26.531Z,92.23
2022-11-24T07:45:29.223Z,92.37
2022-11-24T07:55:33.248Z,91.52
2022-11-24T08:05:44.642Z,91.78
2022-11-24T08:15:58.435Z,91.90
2022-11-24T08:26:05.232Z,91.85
2022-11-24T08:36:11.277Z,91.66
2022-11-24T08:46:16.913Z,91.35
2022-11-24T08:56:21.095Z,90.13
2022-11-24T09:06:25.636Z,90.85
2022-11-24T09:16:30.333Z,89.69
2022-11-24T09:26:35.481Z,89.35
2022-11-24T09:36:39.547Z,88.93
2022-11-24T09:46:52.906Z,87.48
2022-11-24T09:57:00.791Z,86.60
2022-11-24T10:07:15.024Z,85.92
2022-11-24T10:17:35.964Z,84.15
2022-11-24T10:27:42.778Z,83.90
2022-11-24T10:37:54.755Z,83.16
2022-11-24T10:47:58.999Z,82.84
2022-11-24T10:58:16.780Z,82.11
2022-11-24T11:08:25.585Z,80.33
2022-11-24T11:18:34.386Z,79.72
2022-11-24T11:28:37.110Z,79.01
2022-11-24T11:38:42.337Z,77.56
2022-11-24T11:48:46.774Z,76.83
2022-11-24T11:59:10.516Z,74.54
2022-11-24T12:09:26.040Z,65.65
2022-11-24T12:19:42.159Z,53.62
2022-11-24T12:30:06.030Z,43.46
2022-11-24T12:40:15.973Z,48.68
2022-11-24T12:50:20.987Z,44.33
2022-11-24T13:00:30.788Z,49.29
2022-11-24T13:20:59.738Z,57.19
2022-11-24T13:31:11.664Z,59.28
2022-11-24T13:42:04.068Z,57.75
2022-11-24T13:52:41.292Z,56.64
2022-11-24T14:02:44.762Z,55.61
2022-11-24T14:12:48.811Z,66.63
2022-11-24T14:22:51.746Z,71.79
2022-11-24T14:32:56.785Z,74.80
2022-11-24T14:42:59.658Z,77.33
2022-11-24T14:53:03.652Z,78.52
2022-11-24T15:03:17.180Z,80.22
2022-11-24T15:13:22.713Z,81.27
2022-11-24T15:23:26.819Z,82.12
2022-11-24T15:33:31.563Z,82.74
2022-11-24T15:43:36.405Z,84.60
2022-11-24T15:53:43.969Z,85.04
2022-11-24T16:03:48.179Z,85.11
2022-11-24T16:13:54.194Z,85.29
2022-11-24T16:23:57.229Z,85.90
2022-11-24T16:34:01.221Z,86.00
2022-11-24T16:44:04.117Z,87.11
2022-11-24T16:54:08.327Z,87.65
2022-11-24T17:04:12.835Z,88.35
2022-11-24T17:14:17.209Z,88.18
2022-11-24T17:24:19.861Z,88.59
2022-11-24T17:34:23.857Z,89.28
2022-11-24T17:44:26.913Z,90.21
2022-11-24T17:54:45.915Z,90.79
2022-11-24T18:04:49.611Z,91.17
2022-11-24T18:14:53.609Z,91.21
2022-11-24T18:24:56.430Z,91.12
2022-11-24T18:35:00.477Z,91.55
2022-11-24T18:45:04.214Z,91.63
2022-11-24T18:55:09.616Z,92.22
2022-11-24T19:05:12.361Z,92.34
2022-11-24T19:15:16.443Z,92.72
2022-11-24T19:25:19.105Z,93.11
2022-11-24T19:35:23.313Z,93.06
2022-11-24T19:45:26.195Z,93.14
2022-11-24T19:55:30.259Z,92.75
2022-11-24T20:05:32.954Z,92.76
2022-11-24T20:15:37.150Z,93.05
2022-11-24T20:25:39.800Z,93.02
2022-11-24T20:35:43.825Z,92.78
2022-11-24T20:45:46.616Z,92.68
2022-11-24T20:55:50.697Z,93.14
2022-11-24T21:05:55.930Z,93.17
2022-11-24T21:16:01.375Z,93.36
2022-11-24T21:26:06.288Z,93.08
2022-11-24T21:36:12.660Z,93.43
2022-11-24T21:46:15.796Z,93.23
2022-11-24T21:56:21.446Z,92.79
2022-11-24T22:06:24.647Z,93.20
2022-11-24T22:16:28.775Z,93.27
2022-11-24T22:26:31.785Z,93.46
2022-11-24T22:36:37.002Z,93.08
2022-11-24T22:46:39.839Z,93.05
2022-11-24T22:56:43.802Z,93.03
2022-11-24T23:06:46.426Z,92.79
2022-11-24T23:16:50.673Z,93.02
2022-11-24T23:26:53.993Z,93.04
2022-11-24T23:36:58.172Z,92.97
2022-11-24T23:47:00.833Z,92.43
2022-11-24T23:57:05.007Z,92.39
